createdAt,value
2022-09-03T00:07:32.679Z,18.02
2022-09-03T00:17:32.953Z,17.57
2022-09-03T00:27:33.233Z,17.11
2022-09-03T00:37:37.086Z,17.00
2022-09-03T00:47:34.326Z,16.92
2022-09-03T00:57:33.758Z,16.88
2022-09-03T01:07:33.588Z,16.92
2022-09-03T01:17:33.742Z,16.93
2022-09-03T01:27:33.900Z,16.74
2022-09-03T01:37:34.056Z,16.73
2022-09-03T01:47:34.209Z,16.81
2022-09-03T01:57:36.624Z,16.63
2022-09-03T02:07:34.603Z,16.63
2022-09-03T02:17:34.779Z,16.45
2022-09-03T02:27:34.934Z,16.45
2022-09-03T02:37:35.106Z,16.26
2022-09-03T02:47:35.279Z,16.26
2022-09-03T02:57:35.445Z,16.30
2022-09-03T03:07:35.603Z,16.20
2022-09-03T03:17:35.754Z,16.07
2022-09-03T03:27:35.912Z,15.86
2022-09-03T03:37:36.100Z,15.66
2022-09-03T03:47:36.268Z,15.33
2022-09-03T03:57:36.437Z,15.08
2022-09-03T04:07:36.642Z,14.86
2022-09-03T04:17:36.766Z,16.35
2022-09-03T04:27:36.946Z,17.33
2022-09-03T04:37:37.087Z,17.41
2022-09-03T04:47:37.388Z,16.96
2022-09-03T04:57:37.463Z,16.45
2022-09-03T05:07:37.628Z,16.07
2022-09-03T05:17:37.934Z,16.30
2022-09-03T05:27:37.959Z,16.40
2022-09-03T05:37:38.118Z,16.42
2022-09-03T05:47:38.272Z,16.63
2022-09-03T05:57:38.452Z,16.80
2022-09-03T06:07:38.624Z,17.07
2022-09-03T06:17:38.803Z,17.36
2022-09-03T06:27:38.960Z,17.76
2022-09-03T06:37:39.112Z,18.91
2022-09-03T06:47:39.268Z,19.46
2022-09-03T06:57:39.446Z,19.42
2022-09-03T07:07:39.625Z,19.75
2022-09-03T07:17:39.781Z,20.06
2022-09-03T07:27:39.937Z,20.15
2022-09-03T07:37:40.091Z,20.56
2022-09-03T07:47:40.326Z,20.77
2022-09-03T07:57:40.525Z,20.34
2022-09-03T08:07:40.702Z,19.72
2022-09-03T08:17:41.076Z,19.73
2022-09-03T08:27:40.966Z,19.95
2022-09-03T08:37:41.119Z,20.50
2022-09-03T08:47:41.278Z,20.31
2022-09-03T08:57:41.449Z,20.51
2022-09-03T09:07:41.625Z,21.36
2022-09-03T09:17:41.827Z,22.59
2022-09-03T09:27:41.998Z,21.39
2022-09-03T09:37:42.384Z,22.09
2022-09-03T09:47:42.356Z,22.49
2022-09-03T09:57:42.608Z,22.59
2022-09-03T10:07:42.697Z,23.43
2022-09-03T10:17:42.877Z,23.40
2022-09-03T10:27:43.158Z,24.20
2022-09-03T10:37:43.458Z,23.83
2022-09-03T10:47:43.410Z,23.79
2022-09-03T10:57:43.684Z,23.60
2022-09-03T11:07:43.657Z,23.55
2022-09-03T11:17:43.826Z,23.94
2022-09-03T11:27:43.983Z,23.70
2022-09-03T11:37:44.206Z,23.92
2022-09-03T11:47:44.469Z,23.01
2022-09-03T11:57:44.735Z,22.41
2022-09-03T12:07:44.683Z,21.88
2022-09-03T12:17:44.838Z,21.59
2022-09-03T12:27:45.005Z,20.77
2022-09-03T12:47:46.495Z,16.85
2022-09-03T12:57:45.808Z,16.50
2022-09-03T13:07:45.782Z,16.35
2022-09-03T13:17:45.885Z,16.70
2022-09-03T13:27:46.106Z,18.00
2022-09-03T13:37:46.610Z,17.82
2022-09-03T13:47:46.479Z,17.73
2022-09-03T13:57:46.620Z,17.76
2022-09-03T14:07:46.816Z,18.77
2022-09-03T14:17:47.093Z,21.11
2022-09-03T14:27:47.067Z,22.02
2022-09-03T14:37:47.246Z,22.54
2022-09-03T14:47:47.409Z,22.44
2022-09-03T14:57:47.605Z,23.82
2022-09-03T15:07:47.877Z,23.79
2022-09-03T15:17:47.945Z,24.32
2022-09-03T15:27:48.098Z,22.69
2022-09-03T15:37:48.253Z,22.19
2022-09-03T15:47:51.668Z,22.04
2022-09-03T15:57:48.611Z,23.35
2022-09-03T16:07:48.936Z,25.38
2022-09-03T16:17:49.203Z,22.28
2022-09-03T16:27:49.137Z,23.05
2022-09-03T16:37:49.290Z,23.64
2022-09-03T16:47:49.455Z,21.64
2022-09-03T16:57:49.622Z,21.01
2022-09-03T17:07:49.807Z,19.66
2022-09-03T17:17:49.972Z,19.17
2022-09-03T17:27:50.173Z,19.29
2022-09-03T17:37:50.505Z,19.10
2022-09-03T17:47:50.559Z,18.74
2022-09-03T17:57:50.739Z,18.25
2022-09-03T18:07:50.937Z,17.71
2022-09-03T18:17:51.118Z,17.32
2022-09-03T18:27:51.283Z,17.00
2022-09-03T18:37:51.436Z,16.93
2022-09-03T18:48:02.376Z,16.85
2022-09-03T18:57:52.761Z,16.55
2022-09-03T19:07:51.920Z,16.23
2022-09-03T19:17:52.077Z,16.34
2022-09-03T19:27:58.857Z,16.26
2022-09-03T19:37:53.396Z,16.23
2022-09-03T19:47:52.561Z,16.03
2022-09-03T19:57:52.860Z,15.88
2022-09-03T20:07:52.882Z,15.68
2022-09-03T20:17:53.030Z,15.52
2022-09-03T20:27:53.186Z,15.51
2022-09-03T20:37:53.343Z,15.39
2022-09-03T20:47:53.511Z,15.46
2022-09-03T20:57:53.675Z,15.35
2022-09-03T21:07:53.851Z,15.30
2022-09-03T21:17:54.019Z,15.64
2022-09-03T21:27:54.195Z,15.52
2022-09-03T21:37:54.515Z,15.56
2022-09-03T21:47:54.570Z,15.57
2022-09-03T21:57:54.737Z,15.49
2022-09-03T22:07:54.896Z,15.59
2022-09-03T22:17:55.074Z,15.48
2022-09-03T22:27:55.232Z,15.43
2022-09-03T22:37:55.390Z,15.41
2022-09-03T22:47:55.561Z,15.56
2022-09-03T22:57:55.672Z,15.67
2022-09-03T23:07:55.846Z,15.67
2022-09-03T23:17:56.007Z,15.72
2022-09-03T23:27:56.166Z,15.88
2022-09-03T23:37:56.325Z,15.99
2022-09-03T23:47:56.491Z,15.59
2022-09-03T23:57:56.658Z,15.42
